Time;durP1;ratioP1;P1;durP2;ratioP2;P2;SDS_P1;SDS_P2;PMS_P1;PMS_P2;Temp;Humidity;BMP_temperature;BMP_pressure;BME280_temperature;BME280_humidity;BME280_pressure;Samples;Min_cycle;Max_cycle;Signal;HPM_P1;HPM_P2
2021/05/01 00:00:47;;;;;;;27.27;20.35;;;;;;;9.55;100.00;97658.06;5078613;27;45385;-76
2021/05/01 00:03:13;;;;;;;27.80;20.20;;;;;;;9.73;100.00;97662.38;5094590;27;45380;-77
2021/05/01 00:05:38;;;;;;;31.33;21.60;;;;;;;9.86;100.00;97659.25;5084870;27;45340;-76
2021/05/01 00:08:04;;;;;;;32.88;23.23;;;;;;;9.80;100.00;97644.78;5082699;27;45431;-76
2021/05/01 00:10:30;;;;;;;31.08;21.58;;;;;;;9.51;100.00;97632.84;5078679;27;45397;-77
2021/05/01 00:12:56;;;;;;;28.52;20.27;;;;;;;9.64;100.00;97629.69;5090419;27;46245;-77
2021/05/01 00:15:22;;;;;;;26.08;17.92;;;;;;;9.66;100.00;97619.72;5078423;27;45384;-76
2021/05/01 00:17:47;;;;;;;24.15;17.98;;;;;;;9.83;100.00;97631.19;5091766;27;45294;-77
2021/05/01 00:20:13;;;;;;;17.92;14.48;;;;;;;9.64;100.00;97633.19;5092598;27;45569;-77
2021/05/01 00:22:39;;;;;;;20.48;13.90;;;;;;;9.67;100.00;97623.22;5089620;27;45559;-77
2021/05/01 00:25:06;;;;;;;18.38;14.40;;;;;;;9.56;100.00;97622.56;5098406;27;45277;-77
2021/05/01 00:27:31;;;;;;;18.60;14.05;;;;;;;9.77;100.00;97623.88;5089841;27;45341;-78
2021/05/01 00:29:57;;;;;;;18.33;14.45;;;;;;;10.03;100.00;97620.22;5096988;27;45272;-78
2021/05/01 00:32:22;;;;;;;18.75;14.25;;;;;;;10.16;100.00;97612.56;5092096;27;46193;-77
2021/05/01 00:34:48;;;;;;;17.33;13.38;;;;;;;10.20;100.00;97613.06;5097723;27;45284;-78
2021/05/01 00:37:13;;;;;;;15.57;12.95;;;;;;;10.17;100.00;97608.91;5090356;27;45459;-78
2021/05/01 00:39:38;;;;;;;14.50;11.75;;;;;;;10.12;99.51;97607.75;5084726;27;45393;-78
2021/05/01 00:42:04;;;;;;;19.60;14.32;;;;;;;10.12;100.00;97605.91;5090406;27;47196;-78
2021/05/01 00:44:29;;;;;;;15.65;12.95;;;;;;;10.15;100.00;97600.25;5097719;27;45338;-78
2021/05/01 00:46:55;;;;;;;15.20;11.63;;;;;;;10.08;98.88;97607.25;5086499;27;45427;-78
2021/05/01 00:49:20;;;;;;;13.43;10.73;;;;;;;9.88;100.00;97590.88;5077900;28;45343;-78
2021/05/01 00:51:46;;;;;;;14.02;11.00;;;;;;;9.83;100.00;97580.72;5080809;27;45543;-78
2021/05/01 00:54:11;;;;;;;14.38;10.68;;;;;;;9.77;100.00;97576.09;5097549;27;45292;-78
2021/05/01 00:56:37;;;;;;;14.60;11.70;;;;;;;9.87;100.00;97568.78;5078739;27;45412;-78
2021/05/01 00:59:04;;;;;;;12.32;9.77;;;;;;;9.80;99.81;97580.25;5077740;27;45522;-78
2021/05/01 01:01:30;;;;;;;12.30;9.93;;;;;;;9.69;100.00;97579.56;5080146;27;45424;-77
2021/05/01 01:03:55;;;;;;;10.43;8.77;;;;;;;9.67;99.05;97573.59;5086364;27;45233;-78
2021/05/01 01:06:21;;;;;;;11.27;9.45;;;;;;;9.68;100.00;97567.28;5080149;27;45373;-77
2021/05/01 01:08:46;;;;;;;11.23;9.43;;;;;;;9.88;100.00;97573.09;5091160;27;45562;-77
2021/05/01 01:11:13;;;;;;;13.48;10.52;;;;;;;9.96;100.00;97571.41;5085729;27;46088;-77
2021/05/01 01:13:39;;;;;;;13.13;10.20;;;;;;;9.96;100.00;97568.75;5077351;27;45295;-77
2021/05/01 01:16:04;;;;;;;11.95;9.68;;;;;;;9.96;99.78;97568.75;5079968;28;45288;-77
2021/05/01 01:18:31;;;;;;;11.57;9.38;;;;;;;9.97;99.02;97565.94;5081267;27;45586;-77
2021/05/01 01:21:00;;;;;;;12.25;9.30;;;;;;;9.81;98.75;97565.97;5094742;27;46190;-77
2021/05/01 01:23:28;;;;;;;12.40;8.88;;;;;;;9.69;98.43;97562.81;5081247;27;45245;-77
2021/05/01 01:25:54;;;;;;;12.82;9.63;;;;;;;9.79;98.93;97558.16;5080951;27;45601;-77
2021/05/01 01:28:19;;;;;;;11.73;9.35;;;;;;;9.76;98.28;97555.84;5081097;27;45475;-77
2021/05/01 01:30:45;;;;;;;14.23;10.48;;;;;;;9.79;98.78;97555.50;5080924;27;46158;-78
2021/05/01 01:33:11;;;;;;;11.20;8.35;;;;;;;9.62;98.75;97555.53;5081391;27;45329;-77
2021/05/01 01:35:39;;;;;;;11.30;9.18;;;;;;;9.47;100.00;97546.56;5089334;27;45386;-78
2021/05/01 01:38:06;;;;;;;13.57;9.80;;;;;;;9.68;99.83;97561.16;5092701;27;45564;-77
2021/05/01 01:40:35;;;;;;;13.27;10.48;;;;;;;9.70;99.55;97559.16;5093726;27;45530;-76
2021/05/01 01:43:00;;;;;;;14.20;9.82;;;;;;;9.48;100.00;97538.44;5080530;27;45274;-77
2021/05/01 01:45:27;;;;;;;10.45;8.35;;;;;;;9.37;100.00;97537.97;5080967;28;45337;-77
2021/05/01 01:47:54;;;;;;;11.32;9.10;;;;;;;9.54;100.00;97534.28;5088016;27;45200;-77
2021/05/01 01:50:20;;;;;;;13.32;9.57;;;;;;;9.26;100.00;97531.13;5087314;27;45268;-77
2021/05/01 01:52:46;;;;;;;13.15;10.10;;;;;;;9.27;100.00;97538.91;5079512;28;45323;-77
2021/05/01 01:55:14;;;;;;;11.02;8.95;;;;;;;9.27;100.00;97532.81;5080748;27;45423;-77
2021/05/01 01:57:39;;;;;;;12.30;8.65;;;;;;;9.20;100.00;97536.13;5098275;27;45339;-77
2021/05/01 02:00:08;;;;;;;10.38;7.85;;;;;;;9.12;100.00;97530.81;5100543;27;46117;-76
2021/05/01 02:02:34;;;;;;;9.05;7.47;;;;;;;9.12;100.00;97522.84;5093648;27;45410;-76
2021/05/01 02:04:59;;;;;;;9.27;7.20;;;;;;;9.03;100.00;97518.53;5087294;27;45235;-76
2021/05/01 02:07:25;;;;;;;9.50;7.07;;;;;;;9.07;100.00;97511.91;5093255;27;45231;-76
2021/05/01 02:09:50;;;;;;;11.23;7.57;;;;;;;9.31;100.00;97519.06;5080335;27;45357;-76
2021/05/01 02:12:16;;;;;;;8.75;6.85;;;;;;;9.38;100.00;97518.38;5093923;27;45527;-76
2021/05/01 02:14:41;;;;;;;9.48;7.32;;;;;;;9.47;100.00;97528.00;5084509;27;45287;-76
2021/05/01 02:17:06;;;;;;;8.50;6.57;;;;;;;9.38;99.75;97523.69;5080525;27;45518;-76
2021/05/01 02:19:32;;;;;;;10.32;7.78;;;;;;;9.49;100.00;97532.13;5080171;28;46316;-76
2021/05/01 02:21:58;;;;;;;11.23;7.57;;;;;;;9.56;99.77;97536.78;5091480;27;45491;-76
2021/05/01 02:24:23;;;;;;;11.02;6.95;;;;;;;9.47;99.60;97526.16;5085582;27;45363;-76
2021/05/01 02:26:48;;;;;;;8.75;6.57;;;;;;;9.41;100.00;97528.66;5078981;27;45781;-76
2021/05/01 02:29:14;;;;;;;9.32;6.90;;;;;;;9.59;100.00;97531.97;5080036;27;45478;-76
2021/05/01 02:31:39;;;;;;;12.00;7.57;;;;;;;9.69;100.00;97533.63;5089661;27;45290;-75
2021/05/01 02:34:05;;;;;;;10.10;6.97;;;;;;;9.64;100.00;97528.78;5085635;27;45336;-76
2021/05/01 02:36:30;;;;;;;9.57;7.43;;;;;;;9.54;99.01;97522.84;5095872;27;45610;-75
2021/05/01 02:38:56;;;;;;;10.32;7.78;;;;;;;9.67;100.00;97539.06;5085511;27;46002;-75
2021/05/01 02:41:22;;;;;;;9.80;7.18;;;;;;;9.52;98.90;97540.75;5097478;27;45283;-76
2021/05/01 02:43:49;;;;;;;9.02;6.93;;;;;;;9.44;99.41;97525.69;5084131;27;45290;-76
2021/05/01 02:46:14;;;;;;;10.18;7.38;;;;;;;9.45;99.78;97522.03;5080003;27;45650;-76
2021/05/01 02:48:40;;;;;;;9.30;7.75;;;;;;;9.49;100.00;97520.69;5079945;27;45429;-77
2021/05/01 02:51:05;;;;;;;11.07;8.25;;;;;;;9.55;99.39;97509.41;5080382;27;45202;-76
2021/05/01 02:53:31;;;;;;;12.10;7.60;;;;;;;9.54;99.22;97507.75;5083036;27;45289;-77
2021/05/01 02:55:56;;;;;;;11.63;8.23;;;;;;;9.31;100.00;97500.47;5084960;27;45905;-76
2021/05/01 02:58:22;;;;;;;11.70;8.65;;;;;;;9.41;100.00;97491.50;5083509;27;45893;-75
2021/05/01 03:00:47;;;;;;;10.68;8.10;;;;;;;9.36;100.00;97486.69;5079475;27;45317;-76
2021/05/01 03:03:12;;;;;;;11.00;8.63;;;;;;;9.45;100.00;97488.34;5084137;27;45341;-75
2021/05/01 03:05:38;;;;;;;12.02;8.73;;;;;;;9.47;100.00;97499.63;5079283;27;45349;-76
2021/05/01 03:08:04;;;;;;;11.57;8.70;;;;;;;9.46;100.00;97483.88;5079792;27;46407;-76
2021/05/01 03:10:30;;;;;;;10.52;6.75;;;;;;;9.34;100.00;97476.25;5089958;27;45413;-76
2021/05/01 03:12:56;;;;;;;10.98;6.97;;;;;;;9.25;99.61;97487.03;5079394;27;45371;-75
2021/05/01 03:15:23;;;;;;;8.15;6.28;;;;;;;8.97;100.00;97469.63;5079395;27;45581;-77
2021/05/01 03:17:49;;;;;;;9.02;6.68;;;;;;;8.95;100.00;97457.53;5079414;28;46040;-77
2021/05/01 03:20:15;;;;;;;8.27;6.40;;;;;;;8.93;100.00;97457.69;5079307;27;45174;-76
2021/05/01 03:22:41;;;;;;;8.63;6.78;;;;;;;8.92;100.00;97461.31;5079637;27;45370;-77
2021/05/01 03:25:09;;;;;;;9.32;6.75;;;;;;;8.92;100.00;97460.50;5079164;27;45361;-77
2021/05/01 03:27:36;;;;;;;8.65;6.88;;;;;;;8.84;100.00;97451.56;5077361;28;47443;-77
2021/05/01 03:30:04;;;;;;;8.95;6.93;;;;;;;8.84;100.00;97461.31;5092714;27;45238;-75
2021/05/01 03:32:29;;;;;;;10.25;7.00;;;;;;;8.98;100.00;97451.91;5078029;28;45330;-75
2021/05/01 03:34:55;;;;;;;8.45;6.97;;;;;;;9.03;100.00;97447.72;5081735;27;45253;-77
2021/05/01 03:37:20;;;;;;;10.65;7.25;;;;;;;9.09;100.00;97451.56;5099114;27;45209;-77
2021/05/01 03:39:46;;;;;;;11.65;6.63;;;;;;;9.16;100.00;97449.91;5085215;27;45505;-77
2021/05/01 03:42:11;;;;;;;10.15;7.35;;;;;;;9.16;100.00;97441.94;5089116;27;45481;-77
2021/05/01 03:44:36;;;;;;;8.65;6.22;;;;;;;9.22;100.00;97442.28;5093183;27;45238;-77
2021/05/01 03:47:03;;;;;;;8.55;6.38;;;;;;;9.28;99.74;97439.78;5078935;27;45801;-76
2021/05/01 03:49:28;;;;;;;8.30;6.53;;;;;;;9.43;100.00;97434.59;5079798;27;45296;-76
2021/05/01 03:51:54;;;;;;;8.98;5.97;;;;;;;9.58;99.93;97437.41;5079000;27;45295;-76
2021/05/01 03:54:19;;;;;;;8.52;6.43;;;;;;;9.56;98.87;97436.75;5078953;27;45420;-76
2021/05/01 03:56:44;;;;;;;8.25;6.03;;;;;;;9.32;98.86;97430.50;5091556;27;45324;-76
2021/05/01 03:59:10;;;;;;;8.95;6.63;;;;;;;9.33;99.20;97434.81;5091699;27;45383;-76
2021/05/01 04:01:36;;;;;;;8.63;6.38;;;;;;;9.37;99.05;97437.94;5095145;27;45273;-76
2021/05/01 04:04:02;;;;;;;10.68;6.88;;;;;;;9.42;99.13;97434.78;5092702;27;45396;-77
2021/05/01 04:06:28;;;;;;;7.20;6.07;;;;;;;9.22;98.73;97439.63;5091777;27;45961;-76
2021/05/01 04:08:53;;;;;;;8.98;6.60;;;;;;;9.36;99.16;97441.59;5090228;27;45288;-76
2021/05/01 04:11:19;;;;;;;8.77;7.07;;;;;;;9.46;99.59;97442.22;5085968;27;45351;-76
2021/05/01 04:13:47;;;;;;;9.52;6.70;;;;;;;9.49;99.87;97449.03;5078547;27;45594;-76
2021/05/01 04:16:17;;;;;;;9.75;6.57;;;;;;;9.36;99.94;97433.63;5078617;27;46203;-76
2021/05/01 04:18:43;;;;;;;7.63;6.07;;;;;;;9.23;99.57;97435.97;5088073;27;45473;-76
2021/05/01 04:21:09;;;;;;;8.13;6.70;;;;;;;9.34;99.38;97433.81;5085031;27;45226;-76
2021/05/01 04:23:35;;;;;;;8.88;5.80;;;;;;;9.40;100.00;97442.91;5078580;27;45277;-76
2021/05/01 04:26:01;;;;;;;11.82;8.13;;;;;;;9.54;99.84;97441.41;5077967;27;45269;-76
2021/05/01 04:28:27;;;;;;;10.85;7.10;;;;;;;9.60;98.88;97440.72;5078328;27;45319;-75
2021/05/01 04:30:53;;;;;;;8.35;6.97;;;;;;;9.50;98.42;97450.69;5078397;27;45329;-76
2021/05/01 04:33:18;;;;;;;9.82;7.50;;;;;;;9.63;99.75;97448.34;5078402;27;45536;-76
2021/05/01 04:35:44;;;;;;;10.23;6.93;;;;;;;9.48;98.24;97448.19;5087399;27;45943;-76
2021/05/01 04:38:09;;;;;;;10.18;7.50;;;;;;;9.29;98.86;97452.06;5092443;27;45451;-76
2021/05/01 04:40:35;;;;;;;10.05;7.55;;;;;;;9.13;99.91;97444.94;5076892;27;45429;-76
2021/05/01 04:43:03;;;;;;;10.60;7.47;;;;;;;9.36;99.58;97441.59;5077584;27;45455;-76
2021/05/01 04:45:29;;;;;;;8.50;6.65;;;;;;;9.58;99.90;97449.84;5077903;28;45874;-77
2021/05/01 04:47:54;;;;;;;9.50;8.02;;;;;;;9.74;99.34;97454.28;5079278;27;45467;-77
2021/05/01 04:50:20;;;;;;;10.20;7.50;;;;;;;9.77;97.75;97448.63;5076108;28;45336;-77
2021/05/01 04:52:45;;;;;;;9.00;7.05;;;;;;;9.32;98.24;97456.19;5078261;27;45217;-76
2021/05/01 04:55:13;;;;;;;9.57;7.68;;;;;;;9.30;98.09;97448.41;5082370;27;47039;-75
2021/05/01 04:57:40;;;;;;;10.57;7.65;;;;;;;9.23;100.00;97444.75;5084263;27;45594;-75
2021/05/01 05:00:06;;;;;;;9.40;7.10;;;;;;;9.38;99.55;97444.91;5078280;27;45408;-75
2021/05/01 05:02:32;;;;;;;10.27;7.78;;;;;;;9.45;99.70;97451.19;5086876;27;45277;-75
2021/05/01 05:04:57;;;;;;;9.45;8.18;;;;;;;9.53;98.82;97453.00;5094801;27;45560;-75
2021/05/01 05:07:23;;;;;;;10.57;8.00;;;;;;;9.72;98.96;97453.63;5083462;27;45325;-77
2021/05/01 05:09:49;;;;;;;8.88;6.95;;;;;;;9.90;99.23;97448.94;5078392;27;45265;-75
2021/05/01 05:12:14;;;;;;;11.10;7.82;;;;;;;9.96;99.08;97457.19;5089707;27;45192;-75
2021/05/01 05:14:40;;;;;;;10.57;8.07;;;;;;;10.03;99.05;97455.50;5093918;27;45377;-75
2021/05/01 05:17:05;;;;;;;9.30;7.40;;;;;;;10.09;98.23;97457.47;5086555;27;45381;-75
2021/05/01 05:19:30;;;;;;;10.20;7.68;;;;;;;10.08;99.01;97461.97;5092977;27;45627;-75
2021/05/01 05:21:56;;;;;;;10.30;7.82;;;;;;;10.01;99.23;97463.66;5095162;27;45665;-83
2021/05/01 05:24:21;;;;;;;10.73;7.95;;;;;;;10.10;99.24;97469.75;5094215;27;46196;-80
2021/05/01 05:26:47;;;;;;;11.13;8.18;;;;;;;10.11;98.12;97466.09;5091655;27;45476;-78
2021/05/01 05:29:12;;;;;;;9.18;7.57;;;;;;;9.92;97.80;97470.00;5085939;27;45481;-80
2021/05/01 05:31:38;;;;;;;9.05;7.57;;;;;;;9.82;96.98;97478.16;5096876;27;45292;-78
2021/05/01 05:34:03;;;;;;;9.63;7.63;;;;;;;9.93;98.28;97472.47;5088118;27;45432;-80
2021/05/01 05:36:29;;;;;;;9.82;7.13;;;;;;;9.82;97.93;97472.84;5084721;27;45501;-80
2021/05/01 05:38:55;;;;;;;9.07;7.32;;;;;;;9.91;96.30;97468.34;5086860;27;45564;-80
2021/05/01 05:41:21;;;;;;;8.70;7.30;;;;;;;9.90;96.84;97462.19;5098186;27;45521;-79
2021/05/01 05:43:46;;;;;;;7.93;6.85;;;;;;;9.78;96.71;97461.75;5096712;27;46020;-81
2021/05/01 05:46:13;;;;;;;9.57;7.10;;;;;;;9.82;96.93;97458.75;5094712;27;45428;-80
2021/05/01 05:48:39;;;;;;;15.85;13.50;;;;;;;9.97;97.65;97450.88;5082499;27;45557;-84
2021/05/01 05:51:05;;;;;;;11.07;7.78;;;;;;;9.98;97.56;97453.38;5082593;27;45627;-80
2021/05/01 05:53:31;;;;;;;10.43;8.10;;;;;;;10.05;97.50;97461.47;5076625;27;46293;-81
2021/05/01 05:55:56;;;;;;;12.95;9.57;;;;;;;10.05;98.00;97464.97;5082913;27;45438;-81
2021/05/01 05:58:22;;;;;;;9.77;7.18;;;;;;;10.11;98.41;97465.28;5079641;27;45481;-81
2021/05/01 06:00:48;;;;;;;9.80;6.90;;;;;;;10.25;99.42;97474.38;5079582;27;45616;-79
2021/05/01 06:03:14;;;;;;;9.00;7.00;;;;;;;10.27;98.63;97478.50;5084773;27;46160;-83
2021/05/01 06:05:43;;;;;;;8.75;6.55;;;;;;;10.34;98.23;97476.00;5086203;27;45416;-84
2021/05/01 06:08:10;;;;;;;9.45;7.03;;;;;;;10.28;98.20;97469.53;5093915;27;45191;-82
2021/05/01 06:10:37;;;;;;;8.30;6.90;;;;;;;10.16;96.97;97458.47;5083786;27;45210;-86
2021/05/01 06:13:04;;;;;;;9.98;7.75;;;;;;;10.17;97.59;97460.13;5094976;27;46265;-83
2021/05/01 06:15:31;;;;;;;8.88;6.70;;;;;;;10.30;98.53;97453.44;5085540;27;45543;-81
2021/05/01 06:18:00;;;;;;;11.43;8.10;;;;;;;10.31;97.78;97450.59;5079215;27;45540;-80
2021/05/01 06:20:27;;;;;;;11.63;7.73;;;;;;;10.14;97.66;97457.78;5085593;27;45661;-80
2021/05/01 06:22:54;;;;;;;8.93;7.43;;;;;;;9.99;96.56;97451.53;5084045;27;46609;-82
2021/05/01 06:25:20;;;;;;;8.68;6.97;;;;;;;9.92;95.04;97435.50;5084404;27;45531;-82
2021/05/01 06:27:48;;;;;;;9.50;7.45;;;;;;;10.05;96.77;97438.41;5084802;27;45580;-81
2021/05/01 06:30:14;;;;;;;10.90;8.75;;;;;;;10.24;99.11;97446.16;5088472;27;45603;-82
2021/05/01 06:32:42;;;;;;;10.85;7.85;;;;;;;10.30;99.23;97448.13;5087135;27;45448;-83
2021/05/01 06:35:08;;;;;;;9.88;8.02;;;;;;;10.23;98.27;97453.28;5086951;27;45711;-83
2021/05/01 06:37:37;;;;;;;10.55;8.52;;;;;;;10.34;98.00;97444.09;5088348;27;45516;-84
2021/05/01 06:40:09;;;;;;;10.90;7.93;;;;;;;10.43;97.67;97444.91;5082920;27;45519;-83
2021/05/01 06:42:39;;;;;;;10.45;7.40;;;;;;;10.34;97.51;97450.22;5085050;27;46092;-84
2021/05/01 06:45:14;;;;;;;7.95;6.70;;;;;;;10.16;97.19;97461.13;5087622;27;45767;-82
2021/05/01 06:48:05;;;;;;;9.38;7.07;;;;;;;10.21;97.64;97461.44;5085206;27;45584;-83
2021/05/01 06:50:31;;;;;;;8.18;6.50;;;;;;;10.12;97.74;97465.09;5087739;27;46050;-84
2021/05/01 06:52:58;;;;;;;9.95;6.85;;;;;;;10.21;96.81;97471.22;5085281;27;45544;-82
2021/05/01 06:55:28;;;;;;;11.00;6.63;;;;;;;10.13;97.21;97476.56;5084687;27;45593;-83
2021/05/01 06:57:55;;;;;;;9.52;7.05;;;;;;;10.14;97.25;97479.03;5083341;27;45560;-85
2021/05/01 07:00:25;;;;;;;7.90;6.78;;;;;;;10.10;97.27;97479.56;5084971;27;45544;-81
2021/05/01 07:02:55;;;;;;;9.02;6.75;;;;;;;10.28;97.36;97479.34;5086225;27;45474;-80
2021/05/01 07:05:23;;;;;;;8.63;6.95;;;;;;;10.33;97.43;97480.47;5084707;27;46062;-82
2021/05/01 07:07:49;;;;;;;8.98;6.95;;;;;;;10.08;97.79;97482.38;5085080;27;45412;-78
2021/05/01 07:10:17;;;;;;;10.57;7.50;;;;;;;10.10;97.97;97483.03;5083476;27;45645;-80
2021/05/01 07:12:43;;;;;;;10.23;7.25;;;;;;;9.90;98.43;97478.13;5085688;27;46190;-81
2021/05/01 07:15:16;;;;;;;7.78;6.50;;;;;;;9.92;95.78;97481.44;5084656;27;45420;-80
2021/05/01 07:17:42;;;;;;;10.10;7.55;;;;;;;10.19;96.23;97481.19;5085184;27;45544;-80
2021/05/01 07:20:10;;;;;;;9.98;7.68;;;;;;;10.20;96.91;97482.84;5085521;27;45545;-78
2021/05/01 07:22:35;;;;;;;9.48;7.13;;;;;;;10.16;97.66;97477.06;5085099;27;46688;-80
2021/05/01 07:25:03;;;;;;;9.50;7.28;;;;;;;10.09;97.61;97476.06;5085281;27;45518;-78
2021/05/01 07:27:49;;;;;;;10.23;7.07;;;;;;;10.06;97.67;97476.41;5084683;27;45453;-79
2021/05/01 07:30:17;;;;;;;10.10;7.13;;;;;;;10.16;98.27;97474.41;5085089;27;45429;-78
2021/05/01 07:32:45;;;;;;;10.48;8.05;;;;;;;10.25;100.00;97477.84;5084299;27;46216;-79
2021/05/01 07:35:11;;;;;;;10.70;7.68;;;;;;;10.29;97.94;97484.47;5085931;27;45526;-79
2021/05/01 07:37:39;;;;;;;10.20;7.40;;;;;;;10.32;98.42;97488.63;5083898;27;45565;-79
2021/05/01 07:40:07;;;;;;;11.40;7.63;;;;;;;10.17;96.89;97478.72;5082488;27;45778;-81
2021/05/01 07:42:43;;;;;;;10.13;7.47;;;;;;;10.15;97.13;97471.91;5082974;27;48157;-79
2021/05/01 07:45:11;;;;;;;10.10;7.90;;;;;;;10.29;97.42;97468.53;5084320;27;45457;-78
2021/05/01 07:47:38;;;;;;;9.00;7.03;;;;;;;10.28;96.90;97468.72;5084879;27;45521;-79
2021/05/01 07:50:05;;;;;;;7.75;6.05;;;;;;;10.43;95.80;97459.03;5088221;27;45672;-79
2021/05/01 07:52:31;;;;;;;8.85;6.82;;;;;;;10.61;96.46;97457.94;5083824;27;47182;-80
2021/05/01 07:54:59;;;;;;;8.43;6.90;;;;;;;10.74;96.53;97462.69;5084027;27;45675;-80
2021/05/01 07:57:25;;;;;;;8.60;5.85;;;;;;;10.74;94.81;97460.03;5083033;27;46055;-79
2021/05/01 07:59:51;;;;;;;8.23;6.32;;;;;;;10.62;94.52;97449.78;5082932;27;45483;-79
2021/05/01 08:02:16;;;;;;;8.15;6.03;;;;;;;10.69;93.89;97455.22;5084744;27;45522;-80
2021/05/01 08:04:42;;;;;;;8.98;6.75;;;;;;;10.64;93.93;97454.91;5083890;27;46471;-79
2021/05/01 08:07:07;;;;;;;9.57;6.93;;;;;;;10.85;92.87;97458.78;5085364;27;45484;-80
2021/05/01 08:09:33;;;;;;;10.90;7.25;;;;;;;10.96;96.29;97458.34;5085627;27;45425;-79
2021/05/01 08:11:58;;;;;;;9.07;6.32;;;;;;;10.95;94.96;97459.34;5079620;27;46097;-79
2021/05/01 08:14:24;;;;;;;9.98;7.25;;;;;;;11.11;95.69;97460.25;5092025;27;45420;-80
2021/05/01 08:16:49;;;;;;;6.85;5.18;;;;;;;10.99;92.00;97462.50;5089242;27;45410;-79
2021/05/01 08:19:15;;;;;;;7.18;5.78;;;;;;;11.10;95.85;97456.75;5087134;27;45218;-79
2021/05/01 08:21:41;;;;;;;8.07;6.38;;;;;;;10.86;96.24;97465.75;5101040;27;45984;-79
2021/05/01 08:24:06;;;;;;;8.40;6.78;;;;;;;10.80;94.39;97459.31;5096546;27;45458;-80
2021/05/01 08:26:32;;;;;;;10.50;7.65;;;;;;;10.86;95.83;97461.28;5087944;27;45561;-80
2021/05/01 08:28:59;;;;;;;9.25;7.35;;;;;;;10.98;94.40;97452.88;5089298;27;45512;-81
2021/05/01 08:31:24;;;;;;;9.50;7.68;;;;;;;11.02;94.14;97452.31;5088663;27;47409;-79
2021/05/01 08:33:50;;;;;;;10.40;7.35;;;;;;;11.05;94.67;97457.31;5080608;27;45496;-78
2021/05/01 08:36:17;;;;;;;8.82;7.13;;;;;;;11.17;93.83;97457.69;5091079;27;45400;-78
2021/05/01 08:38:42;;;;;;;9.45;7.55;;;;;;;11.17;93.57;97455.03;5082049;27;45375;-78
2021/05/01 08:41:08;;;;;;;8.80;7.38;;;;;;;11.22;93.72;97457.16;5085924;27;45536;-78
2021/05/01 08:43:33;;;;;;;14.15;9.95;;;;;;;11.29;94.47;97466.09;5087783;27;45391;-78
2021/05/01 08:46:01;;;;;;;17.73;11.27;;;;;;;11.16;94.36;97466.69;5094083;27;45293;-79
2021/05/01 08:48:28;;;;;;;10.35;6.95;;;;;;;10.91;93.63;97474.03;5092561;27;45526;-78
2021/05/01 08:51:01;;;;;;;10.15;7.20;;;;;;;10.98;95.13;97474.16;5079088;27;45485;-78
2021/05/01 08:53:27;;;;;;;8.57;6.88;;;;;;;10.98;96.46;97476.81;5088593;27;45460;-78
2021/05/01 08:55:53;;;;;;;7.07;5.72;;;;;;;10.99;96.38;97470.47;5085189;27;45490;-78
2021/05/01 08:58:18;;;;;;;6.05;4.93;;;;;;;11.09;96.58;97474.56;5076485;27;45466;-78
2021/05/01 09:00:47;;;;;;;6.47;5.55;;;;;;;11.16;94.52;97474.66;5086082;27;47059;-77
2021/05/01 09:03:14;;;;;;;8.32;6.22;;;;;;;11.21;94.90;97482.13;5095486;27;45506;-79
2021/05/01 09:05:41;;;;;;;5.15;4.60;;;;;;;11.18;95.93;97474.50;5085453;27;45573;-79
2021/05/01 09:08:09;;;;;;;5.32;4.05;;;;;;;11.14;95.42;97470.56;5097431;27;45639;-79
2021/05/01 09:10:42;;;;;;;5.07;4.15;;;;;;;11.12;96.02;97467.25;5080322;27;45711;-80
2021/05/01 09:13:28;;;;;;;5.95;3.80;;;;;;;11.02;95.25;97478.13;5077154;27;45500;-80
2021/05/01 09:16:07;;;;;;;4.68;4.00;;;;;;;11.03;94.13;97480.56;5078671;27;45640;-80
2021/05/01 09:18:48;;;;;;;5.47;4.20;;;;;;;11.00;95.36;97478.28;5077530;27;45276;-79
2021/05/01 09:21:19;;;;;;;7.05;4.75;;;;;;;11.00;96.67;97470.28;5079101;27;45450;-80
2021/05/01 09:23:45;;;;;;;5.32;4.13;;;;;;;11.09;94.79;97466.59;5088060;27;45291;-80
2021/05/01 09:26:11;;;;;;;4.90;4.38;;;;;;;11.05;95.30;97473.28;5076664;27;45302;-80
2021/05/01 09:28:44;;;;;;;5.28;4.57;;;;;;;11.05;96.10;97472.44;5083746;27;45530;-81
2021/05/01 09:31:14;;;;;;;6.60;4.60;;;;;;;11.06;94.76;97464.28;5080169;27;46115;-81
2021/05/01 09:33:42;;;;;;;5.13;4.25;;;;;;;10.76;94.07;97477.44;5087335;27;45364;-78
2021/05/01 09:36:07;;;;;;;6.28;4.30;;;;;;;10.88;94.91;97477.03;5087508;27;45458;-82
2021/05/01 09:38:37;;;;;;;5.40;4.85;;;;;;;11.01;95.62;97474.59;5085068;27;45589;-86
2021/05/01 09:41:17;;;;;;;4.40;4.00;;;;;;;11.04;96.43;97476.91;5089059;27;46168;-83
2021/05/01 09:44:06;;;;;;;5.50;4.65;;;;;;;11.15;96.61;97470.34;5097266;27;45337;-81
2021/05/01 09:46:38;;;;;;;5.55;3.95;;;;;;;11.24;94.72;97473.78;5094850;27;45459;-82
2021/05/01 09:49:31;;;;;;;3.90;3.08;;;;;;;11.20;94.40;97472.50;5095908;27;45408;-82
2021/05/01 09:52:03;;;;;;;3.83;3.20;;;;;;;11.13;91.50;97474.22;5074057;27;45978;-81
2021/05/01 09:54:33;;;;;;;6.85;4.18;;;;;;;11.13;92.91;97463.56;5088515;27;45839;-82
2021/05/01 09:57:05;;;;;;;5.50;3.50;;;;;;;11.20;92.69;97470.66;5089392;27;45291;-82
2021/05/01 09:59:43;;;;;;;6.55;4.20;;;;;;;11.14;93.92;97465.22;5086969;27;45614;-81
2021/05/01 10:02:11;;;;;;;5.35;4.28;;;;;;;11.28;94.25;97461.78;5100451;27;45313;-80
2021/05/01 10:04:38;;;;;;;5.65;4.82;;;;;;;11.47;94.79;97470.25;5077458;27;45525;-82
2021/05/01 10:07:09;;;;;;;5.82;3.95;;;;;;;11.50;91.48;97461.91;5043088;28;45369;-82
2021/05/01 10:09:42;;;;;;;5.93;4.30;;;;;;;11.19;92.96;97466.31;5040609;28;45487;-81
2021/05/01 10:12:15;;;;;;;5.50;3.60;;;;;;;11.18;91.35;97459.34;5051205;28;45496;-82
2021/05/01 10:14:45;;;;;;;5.10;3.13;;;;;;;11.33;94.74;97453.22;5056219;28;45381;-80
2021/05/01 10:17:21;;;;;;;4.95;3.90;;;;;;;11.49;91.97;97447.78;5057481;28;45676;-78
2021/05/01 10:20:00;;;;;;;4.95;3.58;;;;;;;11.68;92.21;97457.06;5050439;28;45317;-78
2021/05/01 10:22:33;;;;;;;3.85;2.47;;;;;;;11.48;89.12;97461.25;5041697;28;46123;-81
2021/05/01 10:25:01;;;;;;;5.05;3.22;;;;;;;11.70;91.02;97456.88;5046431;28;45540;-81
2021/05/01 10:27:27;;;;;;;5.63;3.28;;;;;;;11.82;90.91;97455.41;5040285;28;45457;-82
2021/05/01 10:30:17;;;;;;;3.03;1.90;;;;;;;11.86;91.81;97452.38;5049121;28;45411;-81
2021/05/01 10:32:51;;;;;;;2.28;1.52;;;;;;;11.90;89.58;97459.81;5041763;28;45357;-81
2021/05/01 10:35:19;;;;;;;1.75;1.27;;;;;;;11.95;86.99;97460.13;5056228;28;45368;-81
2021/05/01 10:37:53;;;;;;;2.03;1.42;;;;;;;12.02;89.68;97456.75;5053613;28;45550;-81
2021/05/01 10:40:19;;;;;;;3.95;1.98;;;;;;;11.92;91.73;97463.13;5047452;28;45332;-81
2021/05/01 10:42:44;;;;;;;2.67;2.00;;;;;;;11.81;89.92;97458.25;5040349;28;46061;-81
2021/05/01 10:45:11;;;;;;;3.45;1.88;;;;;;;11.89;90.40;97449.34;5040101;28;45359;-80
2021/05/01 10:47:36;;;;;;;3.60;2.10;;;;;;;11.82;89.78;97450.09;5052541;28;45341;-79
2021/05/01 10:50:19;;;;;;;2.67;1.60;;;;;;;11.79;91.56;97447.81;5054516;28;45481;-80
2021/05/01 10:52:45;;;;;;;2.50;1.52;;;;;;;11.80;90.45;97453.94;5038962;28;46085;-80
2021/05/01 10:55:10;;;;;;;2.40;1.50;;;;;;;11.84;91.68;97452.56;5042044;28;45504;-80
2021/05/01 10:57:36;;;;;;;2.53;1.30;;;;;;;11.76;91.88;97453.50;5047627;28;45453;-80
2021/05/01 11:00:09;;;;;;;3.03;1.40;;;;;;;11.75;91.34;97445.66;5053770;28;45433;-81
2021/05/01 11:02:43;;;;;;;3.15;1.15;;;;;;;11.67;91.23;97447.41;5054976;28;45494;-81
2021/05/01 11:05:13;;;;;;;2.97;1.67;;;;;;;11.77;92.73;97452.47;5048956;28;45563;-81
2021/05/01 11:08:18;;;;;;;3.28;1.80;;;;;;;11.83;92.77;97451.75;5057584;28;45275;-80
2021/05/01 11:10:46;;;;;;;4.47;2.10;;;;;;;11.86;94.23;97452.38;5050182;28;45449;-79
2021/05/01 11:13:22;;;;;;;7.38;4.32;;;;;;;11.73;92.36;97453.84;5047016;28;48217;-80
2021/05/01 11:15:50;;;;;;;3.92;1.73;;;;;;;11.63;88.70;97455.97;5056872;28;45424;-80
2021/05/01 11:18:20;;;;;;;3.55;2.20;;;;;;;11.74;91.76;97452.00;5044183;28;45333;-81
2021/05/01 11:20:47;;;;;;;3.47;1.80;;;;;;;11.93;91.70;97448.81;5058225;28;45503;-80
2021/05/01 11:23:15;;;;;;;2.00;1.50;;;;;;;11.91;90.33;97447.34;5056707;28;46014;-81
2021/05/01 11:25:41;;;;;;;4.95;1.50;;;;;;;12.00;89.75;97448.09;5047744;28;45437;-80
2021/05/01 11:28:11;;;;;;;3.53;1.98;;;;;;;12.14;90.72;97449.94;5045509;28;45431;-80
2021/05/01 11:30:36;;;;;;;2.25;1.50;;;;;;;12.13;90.09;97452.78;5049597;28;45451;-81
2021/05/01 11:33:03;;;;;;;2.83;1.17;;;;;;;12.12;91.14;97454.63;5051233;28;45487;-81